sensor_id;sensor_type;location;lat;lon;timestamp;P1;durP1;ratioP1;P2;durP2;ratioP2
75526;SDS011;64107;49.248;7.006;2022-11-20T00:01:12;5.60;;;3.40;;
75526;SDS011;64107;49.248;7.006;2022-11-20T00:03:40;8.45;;;3.40;;
75526;SDS011;64107;49.248;7.006;2022-11-20T00:06:07;9.18;;;5.93;;
75526;SDS011;64107;49.248;7.006;2022-11-20T00:08:34;7.28;;;3.22;;
75526;SDS011;64107;49.248;7.006;2022-11-20T00:11:05;12.88;;;5.50;;
75526;SDS011;64107;49.248;7.006;2022-11-20T00:13:35;8.02;;;4.28;;
75526;SDS011;64107;49.248;7.006;2022-11-20T00:16:02;12.20;;;4.60;;
75526;SDS011;64107;49.248;7.006;2022-11-20T00:18:29;9.10;;;4.30;;
75526;SDS011;64107;49.248;7.006;2022-11-20T00:21:06;8.77;;;5.47;;
75526;SDS011;64107;49.248;7.006;2022-11-20T00:23:35;8.60;;;4.22;;
75526;SDS011;64107;49.248;7.006;2022-11-20T00:26:05;9.70;;;4.97;;
75526;SDS011;64107;49.248;7.006;2022-11-20T00:28:33;6.55;;;3.83;;
75526;SDS011;64107;49.248;7.006;2022-11-20T00:31:18;6.50;;;3.80;;
75526;SDS011;64107;49.248;7.006;2022-11-20T00:33:44;14.68;;;9.98;;
75526;SDS011;64107;49.248;7.006;2022-11-20T00:36:14;13.70;;;5.88;;
75526;SDS011;64107;49.248;7.006;2022-11-20T00:38:42;11.95;;;8.15;;
75526;SDS011;64107;49.248;7.006;2022-11-20T00:41:09;10.30;;;4.55;;
75526;SDS011;64107;49.248;7.006;2022-11-20T00:43:37;8.10;;;4.72;;
75526;SDS011;64107;49.248;7.006;2022-11-20T00:46:07;15.13;;;6.43;;
75526;SDS011;64107;49.248;7.006;2022-11-20T00:48:33;7.65;;;4.95;;
75526;SDS011;64107;49.248;7.006;2022-11-20T00:51:00;12.50;;;6.05;;
75526;SDS011;64107;49.248;7.006;2022-11-20T00:53:26;8.73;;;4.25;;
75526;SDS011;64107;49.248;7.006;2022-11-20T00:55:56;9.30;;;4.63;;
75526;SDS011;64107;49.248;7.006;2022-11-20T00:58:33;7.18;;;2.95;;
75526;SDS011;64107;49.248;7.006;2022-11-20T01:01:01;11.25;;;5.35;;
75526;SDS011;64107;49.248;7.006;2022-11-20T01:03:31;10.25;;;5.53;;
75526;SDS011;64107;49.248;7.006;2022-11-20T01:06:04;13.48;;;5.72;;
75526;SDS011;64107;49.248;7.006;2022-11-20T01:08:52;9.32;;;5.68;;
75526;SDS011;64107;49.248;7.006;2022-11-20T01:11:21;6.95;;;4.60;;
75526;SDS011;64107;49.248;7.006;2022-11-20T01:13:49;9.00;;;5.20;;
75526;SDS011;64107;49.248;7.006;2022-11-20T01:16:18;10.07;;;5.65;;
75526;SDS011;64107;49.248;7.006;2022-11-20T01:18:47;11.20;;;7.15;;
75526;SDS011;64107;49.248;7.006;2022-11-20T01:21:15;5.88;;;3.35;;
75526;SDS011;64107;49.248;7.006;2022-11-20T01:23:43;12.68;;;6.10;;
75526;SDS011;64107;49.248;7.006;2022-11-20T01:26:10;11.77;;;6.88;;
75526;SDS011;64107;49.248;7.006;2022-11-20T01:28:38;10.18;;;6.32;;
75526;SDS011;64107;49.248;7.006;2022-11-20T01:34:08;7.80;;;3.50;;
75526;SDS011;64107;49.248;7.006;2022-11-20T01:36:36;10.15;;;6.60;;
75526;SDS011;64107;49.248;7.006;2022-11-20T01:39:04;8.18;;;4.45;;
75526;SDS011;64107;49.248;7.006;2022-11-20T01:41:33;9.20;;;4.50;;
75526;SDS011;64107;49.248;7.006;2022-11-20T01:44:20;9.40;;;5.00;;
75526;SDS011;64107;49.248;7.006;2022-11-20T01:46:52;11.80;;;4.35;;
75526;SDS011;64107;49.248;7.006;2022-11-20T01:52:01;6.40;;;3.97;;
75526;SDS011;64107;49.248;7.006;2022-11-20T01:54:42;8.25;;;4.68;;
75526;SDS011;64107;49.248;7.006;2022-11-20T01:57:30;5.95;;;3.22;;
75526;SDS011;64107;49.248;7.006;2022-11-20T01:59:59;6.60;;;3.33;;
75526;SDS011;64107;49.248;7.006;2022-11-20T02:02:34;8.85;;;6.55;;
75526;SDS011;64107;49.248;7.006;2022-11-20T02:05:01;7.53;;;3.60;;
75526;SDS011;64107;49.248;7.006;2022-11-20T02:07:32;6.15;;;3.53;;
75526;SDS011;64107;49.248;7.006;2022-11-20T02:09:58;5.63;;;2.80;;
75526;SDS011;64107;49.248;7.006;2022-11-20T02:12:24;4.63;;;2.55;;
75526;SDS011;64107;49.248;7.006;2022-11-20T02:15:09;6.13;;;3.53;;
75526;SDS011;64107;49.248;7.006;2022-11-20T02:17:35;4.85;;;3.05;;
75526;SDS011;64107;49.248;7.006;2022-11-20T02:20:01;5.85;;;2.83;;
75526;SDS011;64107;49.248;7.006;2022-11-20T02:22:29;3.20;;;2.28;;
75526;SDS011;64107;49.248;7.006;2022-11-20T02:24:58;7.25;;;2.92;;
75526;SDS011;64107;49.248;7.006;2022-11-20T02:27:25;3.92;;;3.08;;
75526;SDS011;64107;49.248;7.006;2022-11-20T02:29:52;4.28;;;2.47;;
75526;SDS011;64107;49.248;7.006;2022-11-20T02:32:24;6.43;;;3.95;;
75526;SDS011;64107;49.248;7.006;2022-11-20T02:34:52;7.95;;;4.45;;
75526;SDS011;64107;49.248;7.006;2022-11-20T02:37:18;5.35;;;2.95;;
75526;SDS011;64107;49.248;7.006;2022-11-20T02:39:45;4.45;;;2.55;;
75526;SDS011;64107;49.248;7.006;2022-11-20T02:42:12;2.47;;;1.55;;
75526;SDS011;64107;49.248;7.006;2022-11-20T02:44:38;4.93;;;2.13;;
75526;SDS011;64107;49.248;7.006;2022-11-20T02:47:04;5.22;;;3.15;;
75526;SDS011;64107;49.248;7.006;2022-11-20T02:49:30;6.40;;;3.28;;
75526;SDS011;64107;49.248;7.006;2022-11-20T02:51:57;4.47;;;3.00;;
75526;SDS011;64107;49.248;7.006;2022-11-20T02:54:23;5.35;;;3.67;;
75526;SDS011;64107;49.248;7.006;2022-11-20T02:56:49;6.32;;;3.55;;
75526;SDS011;64107;49.248;7.006;2022-11-20T02:59:15;4.03;;;3.22;;
75526;SDS011;64107;49.248;7.006;2022-11-20T03:01:41;4.85;;;3.55;;
75526;SDS011;64107;49.248;7.006;2022-11-20T03:06:33;2.80;;;2.25;;
75526;SDS011;64107;49.248;7.006;2022-11-20T03:08:59;2.95;;;1.52;;
75526;SDS011;64107;49.248;7.006;2022-11-20T03:11:25;2.60;;;1.83;;
75526;SDS011;64107;49.248;7.006;2022-11-20T03:16:19;3.33;;;2.10;;
75526;SDS011;64107;49.248;7.006;2022-11-20T03:18:46;5.53;;;3.40;;
75526;SDS011;64107;49.248;7.006;2022-11-20T03:21:12;3.33;;;1.88;;
75526;SDS011;64107;49.248;7.006;2022-11-20T03:23:39;3.75;;;2.78;;
75526;SDS011;64107;49.248;7.006;2022-11-20T03:26:09;8.90;;;3.35;;
75526;SDS011;64107;49.248;7.006;2022-11-20T03:28:45;3.00;;;1.75;;
75526;SDS011;64107;49.248;7.006;2022-11-20T03:31:23;4.65;;;2.30;;
75526;SDS011;64107;49.248;7.006;2022-11-20T03:33:53;5.53;;;2.47;;
75526;SDS011;64107;49.248;7.006;2022-11-20T03:36:19;1.88;;;1.38;;
75526;SDS011;64107;49.248;7.006;2022-11-20T03:38:46;2.63;;;1.63;;
75526;SDS011;64107;49.248;7.006;2022-11-20T03:41:14;2.83;;;1.60;;
75526;SDS011;64107;49.248;7.006;2022-11-20T03:43:50;4.95;;;2.92;;
75526;SDS011;64107;49.248;7.006;2022-11-20T03:46:17;3.50;;;2.58;;
75526;SDS011;64107;49.248;7.006;2022-11-20T03:48:44;2.65;;;1.90;;
75526;SDS011;64107;49.248;7.006;2022-11-20T03:51:20;2.22;;;1.25;;
75526;SDS011;64107;49.248;7.006;2022-11-20T03:53:50;5.05;;;1.90;;
75526;SDS011;64107;49.248;7.006;2022-11-20T03:56:18;3.78;;;1.65;;
75526;SDS011;64107;49.248;7.006;2022-11-20T03:58:47;1.38;;;1.20;;
75526;SDS011;64107;49.248;7.006;2022-11-20T04:01:14;3.67;;;2.42;;
75526;SDS011;64107;49.248;7.006;2022-11-20T04:03:45;4.32;;;2.30;;
75526;SDS011;64107;49.248;7.006;2022-11-20T04:06:13;3.03;;;2.08;;
75526;SDS011;64107;49.248;7.006;2022-11-20T04:08:40;4.57;;;2.58;;
75526;SDS011;64107;49.248;7.006;2022-11-20T04:11:07;2.25;;;1.75;;
75526;SDS011;64107;49.248;7.006;2022-11-20T04:13:40;3.75;;;2.45;;
75526;SDS011;64107;49.248;7.006;2022-11-20T04:16:08;4.90;;;2.05;;
75526;SDS011;64107;49.248;7.006;2022-11-20T04:18:34;1.45;;;1.17;;
75526;SDS011;64107;49.248;7.006;2022-11-20T04:21:01;3.30;;;2.30;;
75526;SDS011;64107;49.248;7.006;2022-11-20T04:23:28;5.53;;;1.70;;
75526;SDS011;64107;49.248;7.006;2022-11-20T04:25:54;5.72;;;3.28;;
75526;SDS011;64107;49.248;7.006;2022-11-20T04:28:27;2.22;;;1.50;;
75526;SDS011;64107;49.248;7.006;2022-11-20T04:33:19;4.88;;;2.53;;
75526;SDS011;64107;49.248;7.006;2022-11-20T04:35:45;1.83;;;1.48;;
75526;SDS011;64107;49.248;7.006;2022-11-20T04:38:13;3.35;;;1.77;;
75526;SDS011;64107;49.248;7.006;2022-11-20T04:43:05;4.88;;;3.47;;
75526;SDS011;64107;49.248;7.006;2022-11-20T04:45:31;8.00;;;4.05;;
75526;SDS011;64107;49.248;7.006;2022-11-20T04:47:57;3.97;;;2.70;;
75526;SDS011;64107;49.248;7.006;2022-11-20T04:52:49;2.47;;;1.83;;
75526;SDS011;64107;49.248;7.006;2022-11-20T04:55:15;4.88;;;3.03;;
75526;SDS011;64107;49.248;7.006;2022-11-20T04:57:41;5.85;;;2.70;;
75526;SDS011;64107;49.248;7.006;2022-11-20T05:02:33;1.95;;;0.95;;
75526;SDS011;64107;49.248;7.006;2022-11-20T05:07:25;3.03;;;2.17;;
75526;SDS011;64107;49.248;7.006;2022-11-20T05:09:51;2.72;;;1.65;;
75526;SDS011;64107;49.248;7.006;2022-11-20T05:12:17;6.03;;;2.95;;
75526;SDS011;64107;49.248;7.006;2022-11-20T05:17:10;2.78;;;2.42;;
75526;SDS011;64107;49.248;7.006;2022-11-20T05:19:36;4.90;;;2.75;;
75526;SDS011;64107;49.248;7.006;2022-11-20T05:24:29;4.70;;;2.10;;
75526;SDS011;64107;49.248;7.006;2022-11-20T05:29:21;4.82;;;2.55;;
75526;SDS011;64107;49.248;7.006;2022-11-20T05:31:47;3.78;;;2.55;;
75526;SDS011;64107;49.248;7.006;2022-11-20T05:36:39;3.90;;;2.20;;
75526;SDS011;64107;49.248;7.006;2022-11-20T05:41:32;4.38;;;2.50;;
75526;SDS011;64107;49.248;7.006;2022-11-20T05:43:58;8.35;;;2.72;;
75526;SDS011;64107;49.248;7.006;2022-11-20T05:48:50;5.63;;;2.45;;
75526;SDS011;64107;49.248;7.006;2022-11-20T05:51:17;7.85;;;5.85;;
75526;SDS011;64107;49.248;7.006;2022-11-20T05:53:43;5.38;;;3.47;;
75526;SDS011;64107;49.248;7.006;2022-11-20T05:56:11;5.45;;;4.10;;
75526;SDS011;64107;49.248;7.006;2022-11-20T05:58:39;3.85;;;2.63;;
75526;SDS011;64107;49.248;7.006;2022-11-20T06:03:39;3.63;;;2.05;;
75526;SDS011;64107;49.248;7.006;2022-11-20T06:06:07;8.20;;;3.85;;
75526;SDS011;64107;49.248;7.006;2022-11-20T06:08:33;4.60;;;2.58;;
75526;SDS011;64107;49.248;7.006;2022-11-20T06:11:03;5.53;;;3.13;;
75526;SDS011;64107;49.248;7.006;2022-11-20T06:13:33;4.45;;;2.63;;
75526;SDS011;64107;49.248;7.006;2022-11-20T06:16:00;3.00;;;2.55;;
75526;SDS011;64107;49.248;7.006;2022-11-20T06:18:27;5.95;;;5.07;;
75526;SDS011;64107;49.248;7.006;2022-11-20T06:21:00;5.00;;;3.33;;
75526;SDS011;64107;49.248;7.006;2022-11-20T06:23:29;2.90;;;1.90;;
75526;SDS011;64107;49.248;7.006;2022-11-20T06:25:55;5.65;;;3.67;;
75526;SDS011;64107;49.248;7.006;2022-11-20T06:28:22;2.95;;;2.10;;
75526;SDS011;64107;49.248;7.006;2022-11-20T06:30:48;7.55;;;4.45;;
75526;SDS011;64107;49.248;7.006;2022-11-20T06:35:40;6.13;;;2.95;;
75526;SDS011;64107;49.248;7.006;2022-11-20T06:38:06;3.13;;;2.25;;
75526;SDS011;64107;49.248;7.006;2022-11-20T06:40:32;2.75;;;2.33;;
75526;SDS011;64107;49.248;7.006;2022-11-20T06:42:58;4.47;;;3.00;;
75526;SDS011;64107;49.248;7.006;2022-11-20T06:45:24;6.63;;;3.42;;
75526;SDS011;64107;49.248;7.006;2022-11-20T06:47:50;6.47;;;4.38;;
75526;SDS011;64107;49.248;7.006;2022-11-20T06:50:16;5.07;;;3.47;;
75526;SDS011;64107;49.248;7.006;2022-11-20T06:52:42;7.22;;;2.90;;
75526;SDS011;64107;49.248;7.006;2022-11-20T06:57:34;4.25;;;2.17;;
75526;SDS011;64107;49.248;7.006;2022-11-20T07:00:00;3.42;;;2.03;;
75526;SDS011;64107;49.248;7.006;2022-11-20T07:02:26;5.72;;;2.65;;
75526;SDS011;64107;49.248;7.006;2022-11-20T07:04:52;7.78;;;3.47;;
75526;SDS011;64107;49.248;7.006;2022-11-20T07:09:44;2.55;;;1.67;;
75526;SDS011;64107;49.248;7.006;2022-11-20T07:12:10;5.03;;;2.22;;
75526;SDS011;64107;49.248;7.006;2022-11-20T07:17:02;5.53;;;3.40;;
75526;SDS011;64107;49.248;7.006;2022-11-20T07:19:28;4.55;;;2.40;;
75526;SDS011;64107;49.248;7.006;2022-11-20T07:24:21;4.82;;;2.60;;
75526;SDS011;64107;49.248;7.006;2022-11-20T07:26:47;2.13;;;1.77;;
75526;SDS011;64107;49.248;7.006;2022-11-20T07:29:14;1.65;;;1.55;;
75526;SDS011;64107;49.248;7.006;2022-11-20T07:31:41;4.90;;;2.83;;
75526;SDS011;64107;49.248;7.006;2022-11-20T07:34:07;4.60;;;2.17;;
75526;SDS011;64107;49.248;7.006;2022-11-20T07:36:33;3.55;;;2.22;;
75526;SDS011;64107;49.248;7.006;2022-11-20T07:38:59;2.83;;;1.17;;
75526;SDS011;64107;49.248;7.006;2022-11-20T07:41:26;2.90;;;1.65;;
75526;SDS011;64107;49.248;7.006;2022-11-20T07:43:52;3.40;;;1.98;;
75526;SDS011;64107;49.248;7.006;2022-11-20T07:46:18;6.38;;;3.47;;
75526;SDS011;64107;49.248;7.006;2022-11-20T07:48:44;2.35;;;1.45;;
75526;SDS011;64107;49.248;7.006;2022-11-20T07:51:10;3.55;;;2.90;;
75526;SDS011;64107;49.248;7.006;2022-11-20T07:53:37;6.53;;;3.47;;
75526;SDS011;64107;49.248;7.006;2022-11-20T07:58:29;5.55;;;3.22;;
75526;SDS011;64107;49.248;7.006;2022-11-20T08:00:57;4.43;;;3.15;;
75526;SDS011;64107;49.248;7.006;2022-11-20T08:03:32;5.75;;;2.30;;
75526;SDS011;64107;49.248;7.006;2022-11-20T08:05:59;2.35;;;1.75;;
75526;SDS011;64107;49.248;7.006;2022-11-20T08:08:26;5.63;;;2.55;;
75526;SDS011;64107;49.248;7.006;2022-11-20T08:10:52;4.72;;;3.53;;
75526;SDS011;64107;49.248;7.006;2022-11-20T08:13:38;2.47;;;1.95;;
75526;SDS011;64107;49.248;7.006;2022-11-20T08:16:23;4.30;;;1.77;;
75526;SDS011;64107;49.248;7.006;2022-11-20T08:18:49;3.72;;;2.90;;
75526;SDS011;64107;49.248;7.006;2022-11-20T08:23:41;3.63;;;2.35;;
75526;SDS011;64107;49.248;7.006;2022-11-20T08:26:07;3.15;;;2.33;;
75526;SDS011;64107;49.248;7.006;2022-11-20T08:30:59;2.45;;;1.70;;
75526;SDS011;64107;49.248;7.006;2022-11-20T08:33:26;3.42;;;1.58;;
75526;SDS011;64107;49.248;7.006;2022-11-20T08:35:52;3.78;;;2.00;;
75526;SDS011;64107;49.248;7.006;2022-11-20T08:40:44;5.30;;;2.40;;
75526;SDS011;64107;49.248;7.006;2022-11-20T08:43:30;7.70;;;3.58;;
75526;SDS011;64107;49.248;7.006;2022-11-20T08:45:57;4.47;;;2.00;;
75526;SDS011;64107;49.248;7.006;2022-11-20T08:48:23;7.85;;;2.78;;
75526;SDS011;64107;49.248;7.006;2022-11-20T08:53:15;5.75;;;4.30;;
75526;SDS011;64107;49.248;7.006;2022-11-20T08:55:41;4.65;;;2.40;;
75526;SDS011;64107;49.248;7.006;2022-11-20T09:00:33;7.28;;;4.22;;
75526;SDS011;64107;49.248;7.006;2022-11-20T09:02:59;5.47;;;3.08;;
75526;SDS011;64107;49.248;7.006;2022-11-20T09:05:26;8.38;;;3.90;;
75526;SDS011;64107;49.248;7.006;2022-11-20T09:07:55;6.57;;;3.05;;
75526;SDS011;64107;49.248;7.006;2022-11-20T09:10:22;4.63;;;3.85;;
75526;SDS011;64107;49.248;7.006;2022-11-20T09:15:14;9.00;;;4.32;;
75526;SDS011;64107;49.248;7.006;2022-11-20T09:17:40;7.28;;;3.15;;
75526;SDS011;64107;49.248;7.006;2022-11-20T09:20:06;6.65;;;3.95;;
75526;SDS011;64107;49.248;7.006;2022-11-20T09:22:33;4.00;;;2.33;;
75526;SDS011;64107;49.248;7.006;2022-11-20T09:27:25;5.03;;;2.63;;
75526;SDS011;64107;49.248;7.006;2022-11-20T09:29:51;5.07;;;2.35;;
75526;SDS011;64107;49.248;7.006;2022-11-20T09:34:43;4.28;;;2.40;;
75526;SDS011;64107;49.248;7.006;2022-11-20T09:37:09;6.50;;;3.60;;
75526;SDS011;64107;49.248;7.006;2022-11-20T09:47:51;6.40;;;2.67;;
75526;SDS011;64107;49.248;7.006;2022-11-20T09:50:32;3.65;;;2.25;;
75526;SDS011;64107;49.248;7.006;2022-11-20T09:55:48;5.57;;;3.25;;
75526;SDS011;64107;49.248;7.006;2022-11-20T09:59:02;5.78;;;2.72;;
75526;SDS011;64107;49.248;7.006;2022-11-20T10:01:10;2.95;;;1.98;;
75526;SDS011;64107;49.248;7.006;2022-11-20T10:03:41;9.00;;;3.67;;
75526;SDS011;64107;49.248;7.006;2022-11-20T10:06:15;6.60;;;2.75;;
75526;SDS011;64107;49.248;7.006;2022-11-20T10:19:36;3.28;;;1.15;;
75526;SDS011;64107;49.248;7.006;2022-11-20T10:25:04;6.43;;;3.15;;
75526;SDS011;64107;49.248;7.006;2022-11-20T10:27:54;4.93;;;2.60;;
75526;SDS011;64107;49.248;7.006;2022-11-20T10:30:28;3.08;;;2.13;;
75526;SDS011;64107;49.248;7.006;2022-11-20T10:32:57;4.75;;;1.92;;
75526;SDS011;64107;49.248;7.006;2022-11-20T10:35:34;6.78;;;3.10;;
75526;SDS011;64107;49.248;7.006;2022-11-20T10:38:04;3.47;;;1.98;;
75526;SDS011;64107;49.248;7.006;2022-11-20T10:40:53;1.25;;;1.15;;
75526;SDS011;64107;49.248;7.006;2022-11-20T10:43:44;7.30;;;2.78;;
75526;SDS011;64107;49.248;7.006;2022-11-20T10:46:14;6.55;;;3.28;;
75526;SDS011;64107;49.248;7.006;2022-11-20T10:48:50;8.30;;;3.03;;
75526;SDS011;64107;49.248;7.006;2022-11-20T11:00:02;8.50;;;3.08;;
75526;SDS011;64107;49.248;7.006;2022-11-20T11:02:31;3.17;;;2.17;;
75526;SDS011;64107;49.248;7.006;2022-11-20T11:05:04;7.57;;;3.17;;
75526;SDS011;64107;49.248;7.006;2022-11-20T11:07:40;2.67;;;1.73;;
75526;SDS011;64107;49.248;7.006;2022-11-20T11:10:19;4.95;;;2.33;;
75526;SDS011;64107;49.248;7.006;2022-11-20T11:12:53;5.00;;;1.70;;
75526;SDS011;64107;49.248;7.006;2022-11-20T11:15:29;3.88;;;1.90;;
75526;SDS011;64107;49.248;7.006;2022-11-20T11:18:03;1.75;;;1.10;;
75526;SDS011;64107;49.248;7.006;2022-11-20T11:20:29;3.92;;;1.83;;
75526;SDS011;64107;49.248;7.006;2022-11-20T11:22:57;2.47;;;0.80;;
75526;SDS011;64107;49.248;7.006;2022-11-20T11:27:55;5.57;;;1.52;;
75526;SDS011;64107;49.248;7.006;2022-11-20T11:30:23;1.75;;;0.75;;
75526;SDS011;64107;49.248;7.006;2022-11-20T11:32:50;2.15;;;1.00;;
75526;SDS011;64107;49.248;7.006;2022-11-20T11:35:27;1.80;;;0.80;;
75526;SDS011;64107;49.248;7.006;2022-11-20T11:37:54;1.77;;;1.13;;
75526;SDS011;64107;49.248;7.006;2022-11-20T11:40:42;5.55;;;1.15;;
75526;SDS011;64107;49.248;7.006;2022-11-20T11:43:16;1.77;;;0.65;;
75526;SDS011;64107;49.248;7.006;2022-11-20T11:46:25;1.45;;;0.63;;
75526;SDS011;64107;49.248;7.006;2022-11-20T11:49:00;4.35;;;1.10;;
75526;SDS011;64107;49.248;7.006;2022-11-20T11:51:32;1.77;;;0.65;;
75526;SDS011;64107;49.248;7.006;2022-11-20T11:54:14;1.65;;;0.65;;
75526;SDS011;64107;49.248;7.006;2022-11-20T11:56:49;0.40;;;0.30;;
75526;SDS011;64107;49.248;7.006;2022-11-20T12:00:02;2.05;;;0.80;;
75526;SDS011;64107;49.248;7.006;2022-11-20T12:02:13;0.73;;;0.50;;
75526;SDS011;64107;49.248;7.006;2022-11-20T12:04:50;0.77;;;0.45;;
75526;SDS011;64107;49.248;7.006;2022-11-20T12:07:22;5.40;;;1.00;;
75526;SDS011;64107;49.248;7.006;2022-11-20T12:09:59;1.00;;;0.60;;
75526;SDS011;64107;49.248;7.006;2022-11-20T12:12:36;1.80;;;0.90;;
75526;SDS011;64107;49.248;7.006;2022-11-20T12:15:09;0.77;;;0.63;;
75526;SDS011;64107;49.248;7.006;2022-11-20T12:17:38;2.40;;;0.40;;
75526;SDS011;64107;49.248;7.006;2022-11-20T12:20:10;2.25;;;0.70;;
75526;SDS011;64107;49.248;7.006;2022-11-20T12:23:01;0.77;;;0.50;;
75526;SDS011;64107;49.248;7.006;2022-11-20T12:25:36;3.85;;;0.77;;
75526;SDS011;64107;49.248;7.006;2022-11-20T12:28:06;1.15;;;0.50;;
75526;SDS011;64107;49.248;7.006;2022-11-20T12:30:54;0.70;;;0.50;;
75526;SDS011;64107;49.248;7.006;2022-11-20T12:36:44;3.05;;;0.82;;
75526;SDS011;64107;49.248;7.006;2022-11-20T12:42:14;1.80;;;0.80;;
75526;SDS011;64107;49.248;7.006;2022-11-20T12:50:54;3.42;;;0.90;;
75526;SDS011;64107;49.248;7.006;2022-11-20T12:53:33;2.38;;;0.80;;
75526;SDS011;64107;49.248;7.006;2022-11-20T12:56:17;4.35;;;1.20;;
75526;SDS011;64107;49.248;7.006;2022-11-20T13:01:52;2.42;;;0.70;;
75526;SDS011;64107;49.248;7.006;2022-11-20T13:07:13;3.13;;;0.95;;
75526;SDS011;64107;49.248;7.006;2022-11-20T13:09:42;0.50;;;0.50;;
75526;SDS011;64107;49.248;7.006;2022-11-20T13:14:50;0.32;;;0.30;;
75526;SDS011;64107;49.248;7.006;2022-11-20T13:17:35;0.93;;;0.40;;
75526;SDS011;64107;49.248;7.006;2022-11-20T13:20:05;3.85;;;1.27;;
75526;SDS011;64107;49.248;7.006;2022-11-20T13:22:44;4.00;;;0.85;;
75526;SDS011;64107;49.248;7.006;2022-11-20T13:25:28;5.00;;;1.27;;
75526;SDS011;64107;49.248;7.006;2022-11-20T13:27:59;3.15;;;1.05;;
75526;SDS011;64107;49.248;7.006;2022-11-20T13:30:29;2.65;;;0.70;;
75526;SDS011;64107;49.248;7.006;2022-11-20T13:35:37;0.70;;;0.50;;
75526;SDS011;64107;49.248;7.006;2022-11-20T13:38:07;1.10;;;0.52;;
75526;SDS011;64107;49.248;7.006;2022-11-20T13:40:36;1.85;;;0.60;;
75526;SDS011;64107;49.248;7.006;2022-11-20T13:43:18;2.95;;;0.70;;
75526;SDS011;64107;49.248;7.006;2022-11-20T13:45:54;4.78;;;0.82;;
75526;SDS011;64107;49.248;7.006;2022-11-20T13:48:22;1.08;;;0.52;;
75526;SDS011;64107;49.248;7.006;2022-11-20T13:50:54;4.03;;;0.70;;
75526;SDS011;64107;49.248;7.006;2022-11-20T13:59:10;2.00;;;0.40;;
75526;SDS011;64107;49.248;7.006;2022-11-20T14:01:53;1.58;;;0.50;;
75526;SDS011;64107;49.248;7.006;2022-11-20T14:04:23;2.50;;;0.82;;
75526;SDS011;64107;49.248;7.006;2022-11-20T14:06:55;2.22;;;0.65;;
75526;SDS011;64107;49.248;7.006;2022-11-20T14:09:25;0.40;;;0.40;;
75526;SDS011;64107;49.248;7.006;2022-11-20T14:11:52;1.20;;;0.38;;
75526;SDS011;64107;49.248;7.006;2022-11-20T14:14:19;3.15;;;0.90;;
75526;SDS011;64107;49.248;7.006;2022-11-20T14:16:50;1.10;;;0.50;;
75526;SDS011;64107;49.248;7.006;2022-11-20T14:21:50;0.98;;;0.30;;
75526;SDS011;64107;49.248;7.006;2022-11-20T14:24:19;0.82;;;0.55;;
75526;SDS011;64107;49.248;7.006;2022-11-20T14:26:46;1.30;;;0.60;;
75526;SDS011;64107;49.248;7.006;2022-11-20T14:29:13;1.88;;;0.55;;
75526;SDS011;64107;49.248;7.006;2022-11-20T14:31:47;1.55;;;0.80;;
75526;SDS011;64107;49.248;7.006;2022-11-20T14:34:18;1.67;;;0.70;;
75526;SDS011;64107;49.248;7.006;2022-11-20T14:36:56;1.00;;;0.60;;
75526;SDS011;64107;49.248;7.006;2022-11-20T14:39:31;1.98;;;1.05;;
75526;SDS011;64107;49.248;7.006;2022-11-20T14:41:58;1.27;;;0.88;;
75526;SDS011;64107;49.248;7.006;2022-11-20T14:44:34;4.45;;;0.95;;
75526;SDS011;64107;49.248;7.006;2022-11-20T14:47:01;2.67;;;1.00;;
75526;SDS011;64107;49.248;7.006;2022-11-20T14:49:28;1.58;;;0.70;;
75526;SDS011;64107;49.248;7.006;2022-11-20T14:51:58;1.95;;;0.63;;
75526;SDS011;64107;49.248;7.006;2022-11-20T14:54:25;2.83;;;0.88;;
75526;SDS011;64107;49.248;7.006;2022-11-20T14:56:56;1.70;;;1.00;;
75526;SDS011;64107;49.248;7.006;2022-11-20T14:59:28;3.83;;;0.52;;
75526;SDS011;64107;49.248;7.006;2022-11-20T15:04:23;3.20;;;0.88;;
75526;SDS011;64107;49.248;7.006;2022-11-20T15:06:50;1.10;;;0.60;;
75526;SDS011;64107;49.248;7.006;2022-11-20T15:09:17;2.20;;;0.80;;
75526;SDS011;64107;49.248;7.006;2022-11-20T15:11:56;2.95;;;0.68;;
75526;SDS011;64107;49.248;7.006;2022-11-20T15:14:25;3.92;;;0.90;;
75526;SDS011;64107;49.248;7.006;2022-11-20T15:16:52;6.88;;;0.75;;
75526;SDS011;64107;49.248;7.006;2022-11-20T15:19:20;0.60;;;0.45;;
75526;SDS011;64107;49.248;7.006;2022-11-20T15:21:47;3.50;;;0.80;;
75526;SDS011;64107;49.248;7.006;2022-11-20T15:24:14;1.17;;;0.52;;
75526;SDS011;64107;49.248;7.006;2022-11-20T15:26:40;1.33;;;0.70;;
75526;SDS011;64107;49.248;7.006;2022-11-20T15:29:14;1.95;;;0.80;;
75526;SDS011;64107;49.248;7.006;2022-11-20T15:31:43;1.13;;;0.77;;
75526;SDS011;64107;49.248;7.006;2022-11-20T15:34:13;0.77;;;0.68;;
75526;SDS011;64107;49.248;7.006;2022-11-20T15:36:40;2.95;;;0.90;;
75526;SDS011;64107;49.248;7.006;2022-11-20T15:39:07;1.13;;;0.68;;
75526;SDS011;64107;49.248;7.006;2022-11-20T15:41:34;3.72;;;1.30;;
75526;SDS011;64107;49.248;7.006;2022-11-20T15:44:01;1.55;;;0.73;;
75526;SDS011;64107;49.248;7.006;2022-11-20T15:46:28;1.23;;;0.90;;
75526;SDS011;64107;49.248;7.006;2022-11-20T15:49:02;3.05;;;1.30;;
75526;SDS011;64107;49.248;7.006;2022-11-20T15:51:29;3.70;;;0.93;;
75526;SDS011;64107;49.248;7.006;2022-11-20T15:53:56;5.15;;;1.50;;
75526;SDS011;64107;49.248;7.006;2022-11-20T15:56:23;1.42;;;0.73;;
75526;SDS011;64107;49.248;7.006;2022-11-20T15:58:49;6.00;;;0.50;;
75526;SDS011;64107;49.248;7.006;2022-11-20T16:01:16;3.97;;;0.93;;
75526;SDS011;64107;49.248;7.006;2022-11-20T16:03:44;0.82;;;0.68;;
75526;SDS011;64107;49.248;7.006;2022-11-20T16:06:10;2.80;;;1.20;;
75526;SDS011;64107;49.248;7.006;2022-11-20T16:08:36;3.00;;;1.13;;
75526;SDS011;64107;49.248;7.006;2022-11-20T16:13:28;2.75;;;0.82;;
75526;SDS011;64107;49.248;7.006;2022-11-20T16:16:48;1.75;;;0.70;;
75526;SDS011;64107;49.248;7.006;2022-11-20T16:19:14;0.30;;;0.30;;
75526;SDS011;64107;49.248;7.006;2022-11-20T16:24:07;1.63;;;1.13;;
75526;SDS011;64107;49.248;7.006;2022-11-20T16:26:35;1.60;;;0.80;;
75526;SDS011;64107;49.248;7.006;2022-11-20T16:29:02;2.72;;;0.85;;
75526;SDS011;64107;49.248;7.006;2022-11-20T16:31:30;0.68;;;0.57;;
75526;SDS011;64107;49.248;7.006;2022-11-20T16:33:56;4.45;;;0.60;;
75526;SDS011;64107;49.248;7.006;2022-11-20T16:36:24;1.10;;;0.90;;
75526;SDS011;64107;49.248;7.006;2022-11-20T16:38:55;3.03;;;0.90;;
75526;SDS011;64107;49.248;7.006;2022-11-20T16:41:22;2.17;;;0.80;;
75526;SDS011;64107;49.248;7.006;2022-11-20T16:43:51;0.93;;;0.60;;
75526;SDS011;64107;49.248;7.006;2022-11-20T16:46:19;4.00;;;0.65;;
75526;SDS011;64107;49.248;7.006;2022-11-20T16:48:56;2.30;;;0.52;;
75526;SDS011;64107;49.248;7.006;2022-11-20T16:51:27;0.68;;;0.22;;
75526;SDS011;64107;49.248;7.006;2022-11-20T16:53:54;3.92;;;1.00;;
75526;SDS011;64107;49.248;7.006;2022-11-20T16:56:21;1.83;;;0.52;;
75526;SDS011;64107;49.248;7.006;2022-11-20T16:58:49;1.77;;;0.85;;
75526;SDS011;64107;49.248;7.006;2022-11-20T17:01:16;2.80;;;1.40;;
75526;SDS011;64107;49.248;7.006;2022-11-20T17:03:45;1.27;;;0.80;;
75526;SDS011;64107;49.248;7.006;2022-11-20T17:06:16;5.70;;;1.45;;
75526;SDS011;64107;49.248;7.006;2022-11-20T17:08:43;2.20;;;0.90;;
75526;SDS011;64107;49.248;7.006;2022-11-20T17:11:10;2.22;;;0.95;;
75526;SDS011;64107;49.248;7.006;2022-11-20T17:13:37;2.58;;;1.17;;
75526;SDS011;64107;49.248;7.006;2022-11-20T17:16:05;0.75;;;0.63;;
75526;SDS011;64107;49.248;7.006;2022-11-20T17:18:32;1.00;;;0.82;;
75526;SDS011;64107;49.248;7.006;2022-11-20T17:20:58;2.70;;;1.15;;
75526;SDS011;64107;49.248;7.006;2022-11-20T17:23:31;0.70;;;0.70;;
75526;SDS011;64107;49.248;7.006;2022-11-20T17:26:08;1.55;;;1.20;;
75526;SDS011;64107;49.248;7.006;2022-11-20T17:28:36;1.00;;;0.25;;
75526;SDS011;64107;49.248;7.006;2022-11-20T17:31:07;13.23;;;1.23;;
75526;SDS011;64107;49.248;7.006;2022-11-20T17:33:36;1.38;;;0.95;;